Sunflower Gold — JD2460 — position and weather

sailwx.info

Track history (hours):
 
Tides and Currents Weather Stations Pressure Air Temp Water Temp Dewpoint Dewpoint Depression Visibility Wind Speed Wind Dir Waves Ship Positions

Sunflower Gold

Last reported at 2014-Oct-02 13:34 UTC. Time now 2014-Oct-02 14:28 UTC.
Position N 33°57' E 132°43'.

Length 166 m; draft 5.8 m.

Type: Passenger vessel. MMSI: 431000331.

Date/timePositionNaut miles runAvg speedWind from/ knotsBaromVisibWave heightAir tempDewpointWater temp
2014-Oct-02 13:34N 33°57' E 132°43'2522.6
2014-Oct-02 12:28N 33°42' E 132°19'28 1.5
2014-Oct-01 17:32N 34°01' E 132°44'11318.8
2014-Oct-01 11:32N 34°36' E 134°54'2020.0
2014-Oct-01 10:34N 34°39' E 135°18'3 2.9
2014-Oct-01 09:30N 34°42' E 135°17'0 0.0
2014-Oct-01 08:30N 34°42' E 135°17'0 0.0
2014-Oct-01 07:30N 34°42' E 135°17'0 0.0
2014-Oct-01 06:24N 34°42' E 135°17'0 0.0
2014-Oct-01 05:30N 34°42' E 135°17'0 0.0
2014-Oct-01 04:30N 34°42' E 135°17'0 0.0
2014-Oct-01 03:30N 34°42' E 135°17'0 0.0
2014-Oct-01 02:30N 34°42' E 135°17'0 0.0
2014-Oct-01 01:30N 34°42' E 135°17'0 0.0
2014-Oct-01 00:30N 34°42' E 135°17'0 0.0
2014-Sep-30 23:30N 34°42' E 135°17'0 0.0
2014-Sep-30 22:30N 34°42' E 135°17'0 0.0
2014-Sep-30 21:33N 34°42' E 135°17'1110.5
2014-Sep-30 20:33N 34°35' E 135°07'2019.9
2014-Sep-30 19:32N 34°30' E 134°43'6 0.2
2014-Sep-29 11:32N 34°34' E 134°49'1919.7
2014-Sep-29 10:33N 34°36' E 135°12'7 7.1
2014-Sep-29 09:33N 34°42' E 135°17'0 0.0
2014-Sep-29 08:33N 34°42' E 135°17'0 0.0
2014-Sep-29 07:33N 34°42' E 135°17'0 0.0
2014-Sep-29 06:27N 34°42' E 135°17'0 0.0
2014-Sep-29 05:27N 34°42' E 135°17'0 0.0
2014-Sep-29 04:24N 34°42' E 135°17'0 0.0
2014-Sep-29 03:30N 34°42' E 135°17'0 0.0
2014-Sep-29 02:30N 34°42' E 135°17'0 0.0
2014-Sep-29 01:24N 34°42' E 135°17'0 0.0
2014-Sep-29 00:27N 34°42' E 135°17'0 0.0
2014-Sep-28 23:27N 34°42' E 135°17'0 0.0
2014-Sep-28 22:33N 34°42' E 135°17'0 0.0
2014-Sep-28 21:32N 34°42' E 135°17'1212.5
2014-Sep-28 20:33N 34°34' E 135°05'123 4.7
2014-Sep-27 18:33N 33°58' E 132°43'11218.0
2014-Sep-27 12:19N 34°35' E 134°51'1620.9
2014-Sep-27 11:33N 34°36' E 135°10'8 7.2
2014-Sep-27 10:25N 34°42' E 135°17'0 0.0
2014-Sep-27 09:31N 34°42' E 135°17'0 0.0
2014-Sep-27 08:31N 34°42' E 135°17'0 0.0
2014-Sep-27 07:31N 34°42' E 135°17'0 0.0
2014-Sep-27 06:25N 34°42' E 135°17'0 0.0
2014-Sep-27 05:25N 34°42' E 135°17'0 0.0
2014-Sep-27 04:25N 34°42' E 135°17'0 0.0
2014-Sep-27 03:31N 34°42' E 135°17'0 0.0
2014-Sep-27 02:31N 34°42' E 135°17'0 0.0
2014-Sep-27 01:31N 34°42' E 135°17'0 0.0
2014-Sep-27 00:31N 34°42' E 135°17'0 0.0
2014-Sep-26 23:31N 34°42' E 135°17'1 1.5
2014-Sep-26 22:33N 34°41' E 135°18'1414.5
2014-Sep-26 21:33N 34°37' E 135°01'11816.8
2014-Sep-26 14:32N 34°00' E 132°45'4 0.2
2014-Sep-25 17:33N 33°57' E 132°42'11218.2
2014-Sep-25 11:23N 34°35' E 134°50'1822.1
2014-Sep-25 10:34N 34°36' E 135°12'7 6.5
2014-Sep-25 09:29N 34°42' E 135°17'0 0.0
2014-Sep-25 08:23N 34°42' E 135°17'0 0.0
2014-Sep-25 07:29N 34°42' E 135°17'0 0.0
2014-Sep-25 06:17N 34°42' E 135°17'0 0.0
2014-Sep-25 05:29N 34°42' E 135°17'0 0.0
2014-Sep-25 04:29N 34°42' E 135°17'0 0.0
2014-Sep-25 03:29N 34°42' E 135°17'0 0.0
2014-Sep-25 02:29N 34°42' E 135°17'0 0.0
2014-Sep-25 01:11N 34°42' E 135°17'0 0.0
2014-Sep-25 00:29N 34°42' E 135°17'0 0.0
2014-Sep-24 23:29N 34°42' E 135°17'0 0.0
2014-Sep-24 22:29N 34°42' E 135°17'0 0.0
2014-Sep-24 21:34N 34°42' E 135°17'1312.5
2014-Sep-24 20:33N 34°34' E 135°05'13118.0
2014-Sep-24 13:16N 33°52' E 132°35'7 0.4
2014-Sep-23 17:33N 33°57' E 132°41'11318.5
2014-Sep-23 11:25N 34°34' E 134°50'1921.7
2014-Sep-23 10:33N 34°36' E 135°13'7 6.3
2014-Sep-23 09:28N 34°42' E 135°17'0 0.0
2014-Sep-23 08:28N 34°42' E 135°17'0 0.0
2014-Sep-23 07:28N 34°42' E 135°17'0 0.0
2014-Sep-23 06:28N 34°42' E 135°17'0 0.0
2014-Sep-23 05:28N 34°42' E 135°17'0 0.0
2014-Sep-23 04:28N 34°42' E 135°17'0 0.0
2014-Sep-23 03:28N 34°42' E 135°17'0 0.0
2014-Sep-23 02:28N 34°42' E 135°17'0 0.0
2014-Sep-23 01:28N 34°42' E 135°17'0 0.0
2014-Sep-23 00:28N 34°42' E 135°17'0 0.0
2014-Sep-22 23:28N 34°42' E 135°17'0 0.0
2014-Sep-22 22:28N 34°42' E 135°17'0 0.0
2014-Sep-22 21:34N 34°42' E 135°17'1111.1
2014-Sep-22 20:33N 34°35' E 135°07'  
Track history (hours):
 
Tides and Currents Weather Stations Pressure Air Temp Water Temp Dewpoint Dewpoint Depression Visibility Wind Speed Wind Dir Waves Ship Positions

Sunflower Gold

Last reported at 2014-Oct-02 13:34 UTC. Time now 2014-Oct-02 14:28 UTC.
Position N 33°57' E 132°43'.

Length 166 m; draft 5.8 m.

Type: Passenger vessel. MMSI: 431000331.

Date/timePositionNaut miles runAvg speedWind from/ knotsBaromVisibWave heightAir tempDewpointWater temp
2014-Oct-02 13:34N 33°57' E 132°43'2522.6
2014-Oct-02 12:28N 33°42' E 132°19'28 1.5
2014-Oct-01 17:32N 34°01' E 132°44'11318.8
2014-Oct-01 11:32N 34°36' E 134°54'2020.0
2014-Oct-01 10:34N 34°39' E 135°18'3 2.9
2014-Oct-01 09:30N 34°42' E 135°17'0 0.0
2014-Oct-01 08:30N 34°42' E 135°17'0 0.0
2014-Oct-01 07:30N 34°42' E 135°17'0 0.0
2014-Oct-01 06:24N 34°42' E 135°17'0 0.0
2014-Oct-01 05:30N 34°42' E 135°17'0 0.0
2014-Oct-01 04:30N 34°42' E 135°17'0 0.0
2014-Oct-01 03:30N 34°42' E 135°17'0 0.0
2014-Oct-01 02:30N 34°42' E 135°17'0 0.0
2014-Oct-01 01:30N 34°42' E 135°17'0 0.0
2014-Oct-01 00:30N 34°42' E 135°17'0 0.0
2014-Sep-30 23:30N 34°42' E 135°17'0 0.0
2014-Sep-30 22:30N 34°42' E 135°17'0 0.0
2014-Sep-30 21:33N 34°42' E 135°17'1110.5
2014-Sep-30 20:33N 34°35' E 135°07'2019.9
2014-Sep-30 19:32N 34°30' E 134°43'6 0.2
2014-Sep-29 11:32N 34°34' E 134°49'1919.7
2014-Sep-29 10:33N 34°36' E 135°12'7 7.1
2014-Sep-29 09:33N 34°42' E 135°17'0 0.0
2014-Sep-29 08:33N 34°42' E 135°17'0 0.0
2014-Sep-29 07:33N 34°42' E 135°17'0 0.0
2014-Sep-29 06:27N 34°42' E 135°17'0 0.0
2014-Sep-29 05:27N 34°42' E 135°17'0 0.0
2014-Sep-29 04:24N 34°42' E 135°17'0 0.0
2014-Sep-29 03:30N 34°42' E 135°17'0 0.0
2014-Sep-29 02:30N 34°42' E 135°17'0 0.0
2014-Sep-29 01:24N 34°42' E 135°17'0 0.0
2014-Sep-29 00:27N 34°42' E 135°17'0 0.0
2014-Sep-28 23:27N 34°42' E 135°17'0 0.0
2014-Sep-28 22:33N 34°42' E 135°17'0 0.0
2014-Sep-28 21:32N 34°42' E 135°17'1212.5
2014-Sep-28 20:33N 34°34' E 135°05'123 4.7
2014-Sep-27 18:33N 33°58' E 132°43'11218.0
2014-Sep-27 12:19N 34°35' E 134°51'1620.9
2014-Sep-27 11:33N 34°36' E 135°10'8 7.2
2014-Sep-27 10:25N 34°42' E 135°17'0 0.0
2014-Sep-27 09:31N 34°42' E 135°17'0 0.0
2014-Sep-27 08:31N 34°42' E 135°17'0 0.0
2014-Sep-27 07:31N 34°42' E 135°17'0 0.0
2014-Sep-27 06:25N 34°42' E 135°17'0 0.0
2014-Sep-27 05:25N 34°42' E 135°17'0 0.0
2014-Sep-27 04:25N 34°42' E 135°17'0 0.0
2014-Sep-27 03:31N 34°42' E 135°17'0 0.0
2014-Sep-27 02:31N 34°42' E 135°17'0 0.0
2014-Sep-27 01:31N 34°42' E 135°17'0 0.0
2014-Sep-27 00:31N 34°42' E 135°17'0 0.0
2014-Sep-26 23:31N 34°42' E 135°17'1 1.5
2014-Sep-26 22:33N 34°41' E 135°18'1414.5
2014-Sep-26 21:33N 34°37' E 135°01'11816.8
2014-Sep-26 14:32N 34°00' E 132°45'4 0.2
2014-Sep-25 17:33N 33°57' E 132°42'11218.2
2014-Sep-25 11:23N 34°35' E 134°50'1822.1
2014-Sep-25 10:34N 34°36' E 135°12'7 6.5
2014-Sep-25 09:29N 34°42' E 135°17'0 0.0
2014-Sep-25 08:23N 34°42' E 135°17'0 0.0
2014-Sep-25 07:29N 34°42' E 135°17'0 0.0
2014-Sep-25 06:17N 34°42' E 135°17'0 0.0
2014-Sep-25 05:29N 34°42' E 135°17'0 0.0
2014-Sep-25 04:29N 34°42' E 135°17'0 0.0
2014-Sep-25 03:29N 34°42' E 135°17'0 0.0
2014-Sep-25 02:29N 34°42' E 135°17'0 0.0
2014-Sep-25 01:11N 34°42' E 135°17'0 0.0
2014-Sep-25 00:29N 34°42' E 135°17'0 0.0
2014-Sep-24 23:29N 34°42' E 135°17'0 0.0
2014-Sep-24 22:29N 34°42' E 135°17'0 0.0
2014-Sep-24 21:34N 34°42' E 135°17'1312.5
2014-Sep-24 20:33N 34°34' E 135°05'13118.0
2014-Sep-24 13:16N 33°52' E 132°35'7 0.4
2014-Sep-23 17:33N 33°57' E 132°41'11318.5
2014-Sep-23 11:25N 34°34' E 134°50'1921.7
2014-Sep-23 10:33N 34°36' E 135°13'7 6.3
2014-Sep-23 09:28N 34°42' E 135°17'0 0.0
2014-Sep-23 08:28N 34°42' E 135°17'0 0.0
2014-Sep-23 07:28N 34°42' E 135°17'0 0.0
2014-Sep-23 06:28N 34°42' E 135°17'0 0.0
2014-Sep-23 05:28N 34°42' E 135°17'0 0.0
2014-Sep-23 04:28N 34°42' E 135°17'0 0.0
2014-Sep-23 03:28N 34°42' E 135°17'0 0.0
2014-Sep-23 02:28N 34°42' E 135°17'0 0.0
2014-Sep-23 01:28N 34°42' E 135°17'0 0.0
2014-Sep-23 00:28N 34°42' E 135°17'0 0.0
2014-Sep-22 23:28N 34°42' E 135°17'0 0.0
2014-Sep-22 22:28N 34°42' E 135°17'0 0.0
2014-Sep-22 21:34N 34°42' E 135°17'1111.1
2014-Sep-22 20:33N 34°35' E 135°07'  

Dump ship's entire track history